Time;durP1;ratioP1;P1;durP2;ratioP2;P2;SDS_P1;SDS_P2;PMS_P1;PMS_P2;Temp;Humidity;BMP_temperature;BMP_pressure;BME280_temperature;BME280_humidity;BME280_pressure;Samples;Min_cycle;Max_cycle;Signal;HPM_P1;HPM_P2
2022/01/21 00:00:32;;;;;;;;;;;;;;;-2.98;74.38;97150.30;110265;1246;59744;-65
2022/01/21 00:03:17;;;;;;;10.60;6.70;;;;;;;-2.98;73.85;97153.89;110245;1247;59639;-67
2022/01/21 00:05:46;;;;;;;10.30;6.00;;;;;;;-3.00;74.07;97161.61;110317;1244;72173;-67
2022/01/21 00:08:16;;;;;;;9.00;6.30;;;;;;;-3.03;73.67;97162.36;110561;1244;68711;-64
2022/01/21 00:10:45;;;;;;;8.80;5.70;;;;;;;-3.04;73.40;97147.70;110550;1244;69490;-65
2022/01/21 00:13:33;;;;;;;9.00;5.50;;;;;;;-3.04;73.38;97148.77;110512;1244;59680;-65
2022/01/21 00:16:06;;;;;;;7.80;5.50;;;;;;;-3.08;72.63;97145.92;110372;1244;59730;-68
2022/01/21 00:18:37;;;;;;;8.20;5.30;;;;;;;-3.11;72.54;97158.43;110435;1244;71255;-64
2022/01/21 00:32:24;;;;;;;9.30;5.10;;;;;;;-3.18;70.66;97205.83;110403;1244;70758;-68
2022/01/21 00:34:54;;;;;;;9.40;5.50;;;;;;;-3.22;70.56;97219.54;110107;1244;68569;-67
2022/01/21 00:37:24;;;;;;;6.80;4.60;;;;;;;-3.23;70.38;97220.06;110310;1244;69475;-68
2022/01/21 00:39:57;;;;;;;10.10;4.80;;;;;;;-3.24;70.51;97221.27;110614;1244;59705;-66
2022/01/21 00:45:15;;;;;;;6.60;4.90;;;;;;;-3.32;70.27;97225.72;110133;1247;71015;-66
2022/01/21 00:47:45;;;;;;;6.90;5.20;;;;;;;-3.36;70.58;97226.80;110249;1247;68527;-67
2022/01/21 00:50:15;;;;;;;5.80;3.70;;;;;;;-3.37;70.74;97217.48;110385;1244;68509;-66
2022/01/21 00:52:44;;;;;;;6.40;4.20;;;;;;;-3.38;70.74;97224.30;110130;1244;59656;-66
2022/01/21 00:55:15;;;;;;;7.90;5.20;;;;;;;-3.40;70.76;97230.13;110333;1244;59621;-66
2022/01/21 00:57:44;;;;;;;6.10;4.40;;;;;;;-3.43;70.62;97224.57;110179;1247;71361;-67
2022/01/21 01:00:15;;;;;;;7.80;4.30;;;;;;;-3.46;70.74;97223.11;110237;1245;68895;-68
2022/01/21 01:02:44;;;;;;;;;;;;;;;-3.47;70.77;97228.56;110383;1245;69191;-68
2022/01/21 01:05:14;;;;;;;5.80;3.80;;;;;;;-3.48;70.37;97234.89;110370;1244;59680;-66
2022/01/21 01:07:43;;;;;;;5.40;4.30;;;;;;;-3.49;70.59;97235.78;110347;1244;59711;-67
2022/01/21 01:10:20;;;;;;;6.50;5.80;;;;;;;-3.50;70.46;97238.34;109962;1247;71150;-65
2022/01/21 01:19:52;;;;;;;4.90;3.40;;;;;;;-3.51;70.24;97238.71;110450;1244;68739;-67
2022/01/21 01:21:28;;;;;;;6.20;4.20;;;;;;;-3.57;69.70;97236.44;110208;1244;59689;-67
2022/01/21 01:27:36;;;;;;;4.70;3.60;;;;;;;-3.62;69.88;97238.92;110109;1246;71668;-64
2022/01/21 01:29:43;;;;;;;5.30;3.60;;;;;;;-3.72;69.85;97234.17;110073;1247;68995;-68
2022/01/21 01:32:12;;;;;;;7.00;3.80;;;;;;;-3.77;69.89;97230.88;110081;1247;59686;-64
2022/01/21 01:34:43;;;;;;;6.90;3.90;;;;;;;-3.83;70.04;97236.77;110118;1247;59692;-65
2022/01/21 01:37:26;;;;;;;4.70;3.50;;;;;;;-3.88;69.92;97239.41;110172;1246;71554;-65
2022/01/21 01:40:16;;;;;;;6.70;4.00;;;;;;;-3.98;70.26;97234.31;110187;1247;68783;-66
2022/01/21 01:43:20;;;;;;;5.70;4.30;;;;;;;-4.07;70.33;97232.27;110134;1245;69451;-68
2022/01/21 01:51:23;;;;;;;7.10;4.20;;;;;;;-4.29;70.55;97252.20;110248;1246;71506;-65
2022/01/21 01:53:58;;;;;;;5.90;4.00;;;;;;;-4.31;71.59;97258.55;110122;1247;67618;-65
2022/01/21 01:56:32;;;;;;;7.90;5.30;;;;;;;-4.34;71.74;97265.90;110179;1247;69292;-67
2022/01/21 01:59:02;;;;;;;5.60;4.10;;;;;;;-4.35;71.96;97263.36;110148;1247;59714;-66
2022/01/21 02:01:31;;;;;;;5.40;3.90;;;;;;;-4.46;73.31;97260.31;110054;1247;59836;-65
2022/01/21 02:04:01;;;;;;;;;;;;;;;-4.53;73.65;97265.20;110255;1246;71386;-67
2022/01/21 02:06:31;;;;;;;6.20;5.30;;;;;;;-4.63;74.49;97270.77;110229;1247;68588;-67
2022/01/21 02:09:02;;;;;;;10.90;6.40;;;;;;;-4.76;75.61;97264.34;110100;1247;68431;-69
2022/01/21 02:11:32;;;;;;;7.60;4.20;;;;;;;-4.84;75.40;97258.16;110282;1247;59737;-66
2022/01/21 02:14:07;;;;;;;9.30;6.20;;;;;;;-4.93;75.71;97258.98;110105;1247;59626;-69
2022/01/21 02:22:25;;;;;;;8.30;5.40;;;;;;;-5.16;77.21;97266.75;110113;1246;68665;-68
2022/01/21 02:24:58;;;;;;;6.60;3.70;;;;;;;-5.30;77.35;97270.33;110238;1246;59732;-69
2022/01/21 02:27:28;;;;;;;8.90;4.80;;;;;;;-5.42;76.58;97273.52;110231;1247;60134;-68
2022/01/21 02:30:03;;;;;;;7.50;4.60;;;;;;;-5.52;76.33;97278.58;110216;1247;69796;-65
2022/01/21 02:32:33;;;;;;;6.20;3.90;;;;;;;-5.63;76.37;97284.80;110110;1247;68199;-67
2022/01/21 02:35:03;;;;;;;8.40;5.70;;;;;;;-5.71;76.80;97290.49;110124;1247;69623;-68
2022/01/21 02:37:32;;;;;;;6.70;4.00;;;;;;;-5.75;77.12;97293.94;110130;1247;59746;-66
2022/01/21 02:40:02;;;;;;;8.40;5.30;;;;;;;-5.83;76.82;97287.55;110160;1247;59839;-67
2022/01/21 02:42:32;;;;;;;7.70;5.10;;;;;;;-5.89;76.75;97285.41;110056;1247;71341;-69
2022/01/21 02:45:04;;;;;;;7.70;4.90;;;;;;;-5.92;77.12;97283.25;110260;1247;68550;-64
2022/01/21 02:47:33;;;;;;;8.80;4.50;;;;;;;-5.90;78.51;97279.32;110087;1247;68846;-68
2022/01/21 02:50:04;;;;;;;8.30;5.20;;;;;;;-5.88;78.88;97279.96;110092;1247;59754;-66
2022/01/21 02:52:42;;;;;;;9.10;4.90;;;;;;;-5.88;78.14;97275.20;110056;1247;59643;-67
2022/01/21 02:55:12;;;;;;;5.00;3.90;;;;;;;-5.90;78.24;97269.30;109876;1248;71585;-68
2022/01/21 02:57:42;;;;;;;4.30;3.50;;;;;;;-5.95;78.03;97269.36;110059;1247;67925;-65
2022/01/21 03:00:12;;;;;;;5.00;3.60;;;;;;;-5.99;77.78;97269.25;110131;1245;68477;-64
2022/01/21 03:02:42;;;;;;;;;;;;;;;-6.00;77.95;97270.63;110099;1247;60101;-66
2022/01/21 03:05:15;;;;;;;;;;;;;;;-6.00;78.30;97273.84;109927;1248;59823;-66
2022/01/21 03:07:46;;;;;;;7.80;4.60;;;;;;;-6.04;78.22;97276.27;110175;1247;71356;-68
2022/01/21 03:10:17;;;;;;;6.80;4.40;;;;;;;-6.07;78.18;97275.44;110097;1247;67688;-66
2022/01/21 03:12:46;;;;;;;;;;;;;;;-6.12;78.24;97273.63;110024;1247;68615;-69
2022/01/21 03:15:16;;;;;;;6.70;5.10;;;;;;;-6.19;78.27;97274.88;110040;1247;59692;-67
2022/01/21 03:17:47;;;;;;;10.00;6.40;;;;;;;-6.31;78.20;97278.02;109919;1247;59665;-68
2022/01/21 03:20:17;;;;;;;9.80;6.40;;;;;;;-6.42;78.13;97274.73;110104;1247;70803;-67
2022/01/21 03:22:47;;;;;;;11.00;6.60;;;;;;;-6.56;78.26;97273.48;110275;1246;67767;-67
2022/01/21 03:25:17;;;;;;;8.40;5.60;;;;;;;-6.70;78.28;97274.76;110125;1247;69421;-67
2022/01/21 03:27:47;;;;;;;12.70;6.90;;;;;;;-6.77;78.19;97275.16;110018;1247;59774;-64
2022/01/21 03:30:17;;;;;;;18.00;9.30;;;;;;;-6.91;78.34;97277.60;110115;1247;59663;-64
2022/01/21 03:32:54;;;;;;;11.40;6.10;;;;;;;-7.04;78.46;97280.21;110237;1247;70777;-66
2022/01/21 03:35:23;;;;;;;17.10;9.30;;;;;;;-7.13;78.34;97279.77;110144;1247;68684;-65
2022/01/21 03:37:54;;;;;;;11.30;6.60;;;;;;;-7.29;78.41;97273.40;109942;1247;69241;-64
2022/01/21 03:40:24;;;;;;;7.80;5.40;;;;;;;-7.44;78.37;97271.77;110095;1247;60079;-67
2022/01/21 03:42:54;;;;;;;10.60;6.50;;;;;;;-7.56;78.23;97274.70;110127;1247;59732;-66
2022/01/21 03:45:24;;;;;;;10.70;6.30;;;;;;;-7.65;78.27;97275.08;109968;1247;71543;-63
2022/01/21 03:47:54;;;;;;;10.50;6.50;;;;;;;-7.75;78.44;97275.27;110266;1244;68594;-64
2022/01/21 03:50:31;;;;;;;10.10;5.70;;;;;;;-7.82;79.23;97279.52;110141;1244;69438;-64
2022/01/21 03:53:03;;;;;;;6.90;5.20;;;;;;;-7.89;79.41;97285.28;110148;1247;60072;-63
2022/01/21 03:55:34;;;;;;;11.60;6.90;;;;;;;-7.97;79.40;97288.69;110129;1244;59730;-68
2022/01/21 03:58:06;;;;;;;7.10;5.00;;;;;;;-8.01;79.61;97299.17;110204;1245;70672;-64
2022/01/21 04:00:52;;;;;;;8.90;5.60;;;;;;;-8.06;79.92;97297.32;110133;1247;68747;-63
2022/01/21 04:03:23;;;;;;;5.60;3.90;;;;;;;-8.09;80.25;97297.66;110226;1244;69450;-66
2022/01/21 04:05:53;;;;;;;10.20;6.70;;;;;;;-8.09;79.64;97301.55;109979;1247;59758;-66
2022/01/21 04:08:24;;;;;;;8.90;5.50;;;;;;;-8.14;80.31;97301.39;110072;1247;59746;-66
2022/01/21 04:11:01;;;;;;;13.90;7.50;;;;;;;-8.16;79.80;97294.29;110087;1245;70816;-68
2022/01/21 04:13:34;;;;;;;11.40;6.30;;;;;;;-8.15;80.01;97297.84;109967;1247;66778;-68
2022/01/21 04:16:07;;;;;;;7.80;5.30;;;;;;;-8.13;80.01;97297.34;110423;1244;70007;-65
2022/01/21 04:18:38;;;;;;;8.80;5.70;;;;;;;-8.07;80.17;97297.50;110149;1244;59757;-68
2022/01/21 04:21:11;;;;;;;6.00;4.00;;;;;;;-8.00;80.51;97298.67;110557;1244;59747;-66
2022/01/21 04:23:42;;;;;;;17.00;8.90;;;;;;;-7.93;80.41;97297.14;110378;1244;70633;-67
2022/01/21 04:26:16;;;;;;;18.70;10.80;;;;;;;-7.91;79.87;97294.59;110261;1247;68666;-67
2022/01/21 04:28:46;;;;;;;19.70;10.90;;;;;;;-7.91;80.11;97292.05;110117;1247;69361;-68
2022/01/21 04:31:20;;;;;;;16.70;10.80;;;;;;;-7.91;80.28;97290.69;110091;1247;59708;-67
2022/01/21 04:33:52;;;;;;;18.90;10.20;;;;;;;-7.93;80.01;97291.05;110054;1246;59682;-66
2022/01/21 04:36:22;;;;;;;14.50;10.00;;;;;;;-7.97;79.95;97291.39;110114;1247;70827;-68
2022/01/21 04:38:55;;;;;;;10.40;6.50;;;;;;;-7.96;80.17;97293.24;110084;1247;67778;-67
2022/01/21 04:47:19;;;;;;;6.50;5.20;;;;;;;-7.90;79.76;97308.46;110173;1245;59699;-68
2022/01/21 04:49:51;;;;;;;;;;;;;;;-7.93;79.42;97312.53;110378;1245;71640;-67
2022/01/21 04:52:23;;;;;;;9.00;5.40;;;;;;;-8.03;78.89;97311.70;110227;1245;67828;-66
2022/01/21 04:55:19;;;;;;;11.20;6.20;;;;;;;-8.19;78.53;97310.70;110200;1245;70036;-66
2022/01/21 04:57:49;;;;;;;18.80;10.70;;;;;;;-8.33;78.59;97308.17;110337;1244;59693;-68
2022/01/21 05:00:19;;;;;;;13.00;7.60;;;;;;;-8.45;79.24;97314.96;110210;1247;59741;-66
2022/01/21 05:02:49;;;;;;;12.60;7.70;;;;;;;-8.55;79.18;97314.95;110194;1246;71586;-64
2022/01/21 05:05:20;;;;;;;9.60;6.50;;;;;;;-8.64;79.21;97316.30;110123;1247;68620;-68
2022/01/21 05:07:50;;;;;;;9.90;6.10;;;;;;;-8.72;79.37;97320.34;109903;1247;69458;-65
2022/01/21 05:10:20;;;;;;;13.30;8.50;;;;;;;-8.79;79.65;97324.89;110481;1244;60000;-63
2022/01/21 05:12:49;;;;;;;12.60;8.10;;;;;;;-8.87;79.53;97327.58;110195;1244;59770;-63
2022/01/21 05:15:30;;;;;;;12.80;8.20;;;;;;;-8.95;79.89;97330.09;110139;1246;72328;-63
2022/01/21 05:18:00;;;;;;;12.60;6.00;;;;;;;-9.01;80.00;97331.27;110109;1244;67855;-64
2022/01/21 05:20:48;;;;;;;8.00;5.00;;;;;;;-9.05;80.19;97331.76;110312;1244;68981;-66
2022/01/21 05:23:41;;;;;;;9.70;5.80;;;;;;;-9.10;80.62;97331.73;110367;1244;59746;-67
2022/01/21 05:26:12;;;;;;;4.40;3.60;;;;;;;-9.15;80.29;97330.37;110264;1244;59678;-64
2022/01/21 05:28:41;;;;;;;7.10;4.40;;;;;;;-9.20;79.88;97326.98;110177;1244;70602;-65
2022/01/21 05:31:47;;;;;;;7.10;6.30;;;;;;;-9.26;80.37;97330.16;109705;1251;68603;-63
2022/01/21 05:34:37;;;;;;;7.20;5.10;;;;;;;-9.30;80.64;97338.73;110060;1247;70242;-64
2022/01/21 05:37:38;;;;;;;9.50;5.90;;;;;;;-9.33;80.06;97336.55;110017;1247;59652;-64
2022/01/21 05:40:33;;;;;;;6.40;3.80;;;;;;;-9.35;80.49;97345.14;109972;1247;59669;-66
2022/01/21 05:43:28;;;;;;;9.30;4.20;;;;;;;-9.36;79.89;97351.73;110108;1245;71544;-67
2022/01/21 05:49:39;;;;;;;9.80;6.10;;;;;;;-9.37;80.42;97356.78;109807;1247;69716;-65
2022/01/21 05:52:36;;;;;;;10.50;4.80;;;;;;;-9.39;80.48;97355.91;110113;1247;59655;-64
2022/01/21 05:55:20;;;;;;;10.40;6.10;;;;;;;-9.40;80.65;97357.61;110205;1246;59604;-67
2022/01/21 05:58:15;;;;;;;11.00;6.10;;;;;;;-9.42;81.11;97352.88;110059;1246;70750;-64
2022/01/21 06:00:47;;;;;;;11.80;6.70;;;;;;;-9.43;81.05;97352.70;110120;1246;67771;-68
2022/01/21 06:03:17;;;;;;;4.90;4.10;;;;;;;-9.43;80.94;97356.75;110017;1247;69583;-67
2022/01/21 06:05:53;;;;;;;7.40;5.70;;;;;;;-9.38;80.37;97360.65;110336;1246;59652;-66
2022/01/21 06:08:22;;;;;;;10.90;6.90;;;;;;;-9.31;80.76;97366.42;110252;1246;59672;-67
2022/01/21 06:10:52;;;;;;;12.50;7.30;;;;;;;-9.29;80.62;97366.10;110120;1247;71631;-68
2022/01/21 06:13:21;;;;;;;23.80;15.20;;;;;;;-9.32;80.34;97368.96;110172;1247;67944;-64
2022/01/21 06:15:50;;;;;;;20.30;12.60;;;;;;;-9.36;80.26;97367.08;110022;1247;68725;-64
2022/01/21 06:18:20;;;;;;;14.60;8.60;;;;;;;-9.37;80.39;97371.98;110162;1244;60020;-68
2022/01/21 06:20:49;;;;;;;16.80;7.60;;;;;;;-9.36;80.52;97372.14;110220;1244;59602;-65
2022/01/21 06:23:19;;;;;;;15.90;7.60;;;;;;;-9.33;80.50;97372.50;110248;1244;71842;-64
2022/01/21 06:25:48;;;;;;;14.10;8.50;;;;;;;-9.29;80.72;97375.89;110162;1244;68528;-66
2022/01/21 06:28:17;;;;;;;31.70;17.30;;;;;;;-9.25;80.83;97381.66;110342;1244;69509;-64
2022/01/21 06:30:49;;;;;;;23.60;14.50;;;;;;;-9.20;80.89;97384.37;109930;1247;59680;-64
2022/01/21 06:33:17;;;;;;;21.10;13.40;;;;;;;-9.17;80.78;97384.39;110238;1244;59723;-65
2022/01/21 06:35:48;;;;;;;18.90;11.00;;;;;;;-9.15;80.64;97386.92;110309;1244;70884;-65
2022/01/21 06:38:20;;;;;;;15.50;8.50;;;;;;;-9.11;80.61;97385.59;110363;1244;68651;-65
2022/01/21 06:40:50;;;;;;;41.60;21.40;;;;;;;-9.07;80.61;97386.28;110270;1244;70113;-63
2022/01/21 06:43:20;;;;;;;28.40;15.10;;;;;;;-9.04;80.69;97382.59;110244;1245;59668;-63
2022/01/21 06:45:49;;;;;;;38.10;22.10;;;;;;;-9.00;80.53;97388.01;110161;1245;59748;-64
2022/01/21 06:48:18;;;;;;;25.80;15.70;;;;;;;-8.96;80.27;97389.70;110230;1244;71535;-66
2022/01/21 06:50:47;;;;;;;36.30;21.60;;;;;;;-8.91;80.31;97386.34;110150;1247;68656;-64
2022/01/21 06:53:16;;;;;;;33.30;20.90;;;;;;;-8.82;79.94;97389.74;110054;1247;69322;-65
2022/01/21 06:55:47;;;;;;;37.90;22.40;;;;;;;-8.70;79.49;97394.52;110063;1247;59684;-67
2022/01/21 06:58:16;;;;;;;41.30;22.50;;;;;;;-8.60;79.15;97392.86;110381;1244;59602;-68
2022/01/21 07:00:45;;;;;;;35.90;20.70;;;;;;;-8.46;78.96;97395.76;109767;1246;540359;-65
2022/01/21 07:03:15;;;;;;;24.40;17.00;;;;;;;-8.27;78.55;97400.66;110414;1245;67828;-67
2022/01/21 07:05:46;;;;;;;28.10;16.00;;;;;;;-8.05;78.75;97402.01;110352;1245;69487;-68
2022/01/21 07:08:16;;;;;;;23.70;16.00;;;;;;;-7.83;78.59;97404.05;110435;1244;59644;-66
2022/01/21 07:10:45;;;;;;;28.80;16.60;;;;;;;-7.67;78.32;97403.53;110476;1245;59702;-68
2022/01/21 07:13:16;;;;;;;26.70;17.50;;;;;;;-7.53;78.52;97402.67;110581;1245;71592;-65
2022/01/21 07:15:45;;;;;;;;;;;;;;;-7.39;78.66;97403.48;110029;1247;69186;-65
2022/01/21 07:18:14;;;;;;;13.00;8.00;;;;;;;-7.26;78.43;97408.36;110190;1247;69371;-66
2022/01/21 07:20:43;;;;;;;13.50;8.70;;;;;;;-7.14;77.98;97410.87;110080;1247;59650;-65
2022/01/21 07:23:13;;;;;;;15.30;8.80;;;;;;;-7.02;78.19;97411.85;110401;1247;59733;-66
2022/01/21 07:25:42;;;;;;;24.40;14.90;;;;;;;-6.87;78.12;97413.48;110160;1246;70975;-66
2022/01/21 07:28:11;;;;;;;21.60;14.00;;;;;;;-6.72;78.31;97412.91;110438;1247;69322;-66
2022/01/21 07:30:41;;;;;;;18.30;11.10;;;;;;;-6.57;77.98;97410.48;110209;1247;69467;-65
2022/01/21 07:33:10;;;;;;;18.70;10.10;;;;;;;-6.44;78.05;97414.63;110299;1247;59754;-67
2022/01/21 07:35:39;;;;;;;14.00;8.10;;;;;;;-6.29;77.88;97417.95;110168;1247;59676;-64
2022/01/21 07:38:11;;;;;;;18.80;11.70;;;;;;;-6.08;78.58;97423.06;110250;1245;72250;-67
2022/01/21 07:40:41;;;;;;;39.90;23.90;;;;;;;-5.89;76.47;97420.52;110116;1247;69270;-66
2022/01/21 07:43:10;;;;;;;45.90;25.90;;;;;;;-5.73;76.81;97417.16;110432;1246;69435;-68
2022/01/21 07:45:40;;;;;;;37.50;24.30;;;;;;;-5.54;76.32;97413.09;110455;1246;59680;-66
2022/01/21 07:48:09;;;;;;;60.30;36.60;;;;;;;-5.34;75.85;97410.35;110279;1247;59709;-68
2022/01/21 07:50:39;;;;;;;43.30;23.80;;;;;;;-5.12;75.17;97412.51;110129;1247;70747;-69
2022/01/21 07:53:08;;;;;;;29.10;18.50;;;;;;;-4.93;74.78;97415.02;110245;1244;68635;-64
2022/01/21 07:55:37;;;;;;;25.50;16.00;;;;;;;-4.84;74.17;97413.04;110135;1247;69833;-65
2022/01/21 07:58:07;;;;;;;45.80;27.90;;;;;;;-4.77;74.23;97415.17;110210;1244;59678;-66
2022/01/21 08:00:37;;;;;;;31.60;19.90;;;;;;;-4.72;74.54;97414.25;110387;1244;59621;-66
2022/01/21 08:03:08;;;;;;;26.20;16.30;;;;;;;-4.67;74.31;97421.52;110279;1245;71847;-64
2022/01/21 08:05:44;;;;;;;27.70;18.80;;;;;;;-4.63;73.57;97424.18;110537;1245;68577;-65
2022/01/21 08:08:13;;;;;;;55.50;31.10;;;;;;;-4.68;73.16;97424.40;110258;1244;69258;-64
2022/01/21 08:10:43;;;;;;;79.50;42.50;;;;;;;-4.69;73.23;97424.77;110389;1244;59612;-64
2022/01/21 08:13:12;;;;;;;38.60;22.30;;;;;;;-4.70;73.33;97430.22;110069;1247;59726;-66
2022/01/21 08:15:42;;;;;;;29.10;17.80;;;;;;;-4.71;73.12;97438.23;110058;1247;71477;-67
2022/01/21 08:18:12;;;;;;;31.70;21.10;;;;;;;-4.73;72.95;97443.01;110129;1245;67839;-67
2022/01/21 08:20:44;;;;;;;27.20;19.50;;;;;;;-4.77;73.06;97447.83;110528;1245;68651;-64
2022/01/21 08:23:13;;;;;;;23.90;15.60;;;;;;;-4.75;73.16;97453.07;110301;1245;59777;-65
2022/01/21 08:25:43;;;;;;;21.70;13.30;;;;;;;-4.69;73.27;97449.08;110234;1245;59701;-64
2022/01/21 08:28:12;;;;;;;23.10;15.30;;;;;;;-4.60;73.45;97440.14;110073;1247;71644;-64
2022/01/21 08:30:42;;;;;;;17.60;13.40;;;;;;;-4.49;72.72;97443.75;110140;1246;69172;-64
2022/01/21 08:33:11;;;;;;;18.30;13.70;;;;;;;-4.39;72.77;97445.65;110137;1245;70153;-66
2022/01/21 08:35:44;;;;;;;17.30;10.80;;;;;;;-4.24;72.85;97448.52;110363;1244;59719;-63
2022/01/21 08:38:13;;;;;;;17.80;12.90;;;;;;;-4.10;72.48;97452.73;110273;1244;60107;-69
2022/01/21 08:40:42;;;;;;;18.20;11.90;;;;;;;-4.00;71.85;97456.86;110162;1247;72224;-66
2022/01/21 08:43:11;;;;;;;25.70;18.20;;;;;;;-3.87;71.61;97464.66;110623;1244;68676;-66
2022/01/21 08:45:40;;;;;;;18.90;12.00;;;;;;;-3.73;71.75;97464.63;110085;1247;69851;-66
2022/01/21 08:48:10;;;;;;;23.30;16.30;;;;;;;-3.61;70.92;97465.46;110202;1245;59742;-66
2022/01/21 08:50:39;;;;;;;13.30;10.00;;;;;;;-3.50;71.23;97468.37;110329;1245;59745;-67
2022/01/21 08:53:54;;;;;;;18.20;11.50;;;;;;;-3.37;70.64;97472.07;110225;1245;72592;-68
2022/01/21 08:55:58;;;;;;;20.40;12.70;;;;;;;-3.22;69.67;97470.77;110206;1247;68681;-68
2022/01/21 08:58:27;;;;;;;13.80;10.00;;;;;;;-3.07;70.07;97469.16;110272;1245;68747;-69
2022/01/21 09:00:56;;;;;;;16.50;12.20;;;;;;;-2.89;70.31;97472.42;110487;1244;59648;-67
2022/01/21 09:03:25;;;;;;;19.30;12.60;;;;;;;-2.72;69.96;97474.50;110166;1245;59681;-67
2022/01/21 09:05:55;;;;;;;14.60;11.50;;;;;;;-2.58;68.63;97475.08;110162;1245;71575;-67
2022/01/21 09:08:28;;;;;;;15.80;11.00;;;;;;;-2.45;68.27;97478.91;110141;1247;68965;-69
2022/01/21 09:10:59;;;;;;;24.70;16.50;;;;;;;-2.32;68.28;97481.39;110303;1245;70027;-69
2022/01/21 09:13:30;;;;;;;28.80;18.60;;;;;;;-2.24;68.62;97480.38;110260;1247;60152;-69
2022/01/21 09:16:01;;;;;;;21.50;14.80;;;;;;;-2.20;68.24;97483.52;110559;1245;59568;-67
2022/01/21 09:18:45;;;;;;;20.60;14.70;;;;;;;-2.14;67.19;97481.17;110305;1247;71590;-65
2022/01/21 09:21:37;;;;;;;15.40;10.40;;;;;;;-2.09;66.95;97476.11;110352;1244;67834;-65
2022/01/21 09:24:06;;;;;;;13.80;9.30;;;;;;;-1.98;67.38;97472.48;110350;1244;69815;-66
2022/01/21 09:26:35;;;;;;;20.10;13.20;;;;;;;-1.85;67.57;97465.53;110115;1247;59668;-65
2022/01/21 09:29:06;;;;;;;15.10;10.70;;;;;;;-1.73;66.70;97465.41;110161;1247;59687;-68
2022/01/21 09:31:36;;;;;;;20.60;12.90;;;;;;;-1.59;66.54;97465.95;110328;1247;71508;-64
2022/01/21 09:34:26;;;;;;;15.50;9.60;;;;;;;-1.42;65.96;97463.83;110179;1247;69346;-64
2022/01/21 09:36:57;;;;;;;11.80;8.50;;;;;;;-1.28;66.24;97459.21;110281;1245;69480;-68
2022/01/21 09:39:28;;;;;;;10.50;6.70;;;;;;;-1.14;65.31;97459.54;110143;1245;59726;-68
2022/01/21 09:42:01;;;;;;;17.60;12.40;;;;;;;-0.97;65.04;97453.98;110429;1244;59686;-66
2022/01/21 09:44:32;;;;;;;15.60;9.60;;;;;;;-0.86;61.68;97447.52;110195;1244;70794;-70
2022/01/21 09:47:03;;;;;;;15.80;11.10;;;;;;;-0.86;60.59;97443.09;110283;1247;69181;-70
2022/01/21 09:49:34;;;;;;;16.60;10.40;;;;;;;-1.02;59.80;97436.48;110243;1247;69906;-64
2022/01/21 09:52:07;;;;;;;19.20;11.10;;;;;;;-1.07;60.69;97435.59;110098;1247;59744;-65
2022/01/21 09:54:45;;;;;;;12.50;9.10;;;;;;;-1.10;60.62;97431.55;110138;1247;59670;-65
2022/01/21 09:57:21;;;;;;;13.50;8.50;;;;;;;-0.48;60.61;97437.23;110229;1247;72203;-67
2022/01/21 09:59:52;;;;;;;10.90;7.60;;;;;;;0.48;58.15;97433.80;110329;1247;67825;-68
2022/01/21 10:02:27;;;;;;;9.70;7.50;;;;;;;0.74;56.49;97427.27;110227;1247;69384;-67
2022/01/21 10:04:59;;;;;;;13.90;9.60;;;;;;;0.84;55.76;97423.00;110311;1247;59732;-65
2022/01/21 10:07:30;;;;;;;15.60;9.90;;;;;;;1.11;54.67;97425.52;110230;1248;59654;-65
2022/01/21 10:10:06;;;;;;;16.00;11.20;;;;;;;1.93;52.00;97427.18;110474;1244;71648;-67
2022/01/21 10:12:50;;;;;;;18.10;11.70;;;;;;;2.46;49.66;97416.70;110388;1242;68378;-68
2022/01/21 10:15:19;;;;;;;15.40;11.90;;;;;;;3.33;47.84;97414.93;110469;1244;68587;-65
2022/01/21 10:18:06;;;;;;;15.90;10.00;;;;;;;4.29;48.36;97412.39;110502;1244;59740;-68
2022/01/21 10:20:57;;;;;;;8.90;7.50;;;;;;;6.11;42.09;97411.11;110487;1245;59620;-70
2022/01/21 10:23:29;;;;;;;10.30;6.10;;;;;;;7.38;37.00;97405.05;110308;1247;72181;-67
2022/01/21 10:26:10;;;;;;;12.50;8.50;;;;;;;8.54;39.64;97399.73;110379;1245;67764;-65
2022/01/21 10:28:42;;;;;;;15.60;8.40;;;;;;;9.92;34.19;97398.54;110619;1245;69415;-67
2022/01/21 10:31:17;;;;;;;11.10;6.40;;;;;;;10.96;31.91;97391.63;110552;1245;59744;-68
2022/01/21 10:33:52;;;;;;;9.80;5.20;;;;;;;11.61;30.01;97389.77;110538;1244;59673;-69
2022/01/21 10:36:26;;;;;;;10.50;5.50;;;;;;;12.38;29.36;97391.58;110504;1245;72115;-70
2022/01/21 10:39:13;;;;;;;11.00;5.10;;;;;;;12.66;27.10;97391.44;110465;1244;69007;-68
2022/01/21 10:41:44;;;;;;;8.40;5.50;;;;;;;12.92;26.04;97389.46;110531;1245;70054;-69
2022/01/21 10:44:19;;;;;;;8.10;5.50;;;;;;;12.92;26.13;97392.49;110514;1245;59714;-69
2022/01/21 10:47:06;;;;;;;9.00;5.30;;;;;;;12.95;26.71;97390.66;110502;1244;59700;-68
2022/01/21 10:49:39;;;;;;;7.80;5.30;;;;;;;13.31;25.21;97394.67;110235;1247;72086;-68
2022/01/21 10:52:10;;;;;;;7.00;4.80;;;;;;;13.06;25.27;97386.95;110407;1244;68361;-66
2022/01/21 10:54:45;;;;;;;9.50;6.10;;;;;;;13.38;26.53;97386.17;110542;1244;69439;-68
2022/01/21 10:57:19;;;;;;;8.60;5.70;;;;;;;14.01;26.53;97376.55;110370;1244;59736;-69
2022/01/21 10:59:53;;;;;;;11.00;6.50;;;;;;;14.91;26.65;97374.00;110317;1244;59731;-69
2022/01/21 11:02:46;;;;;;;11.90;7.80;;;;;;;15.49;23.85;97377.30;110409;1244;71572;-69
2022/01/21 11:05:25;;;;;;;8.90;6.60;;;;;;;16.02;24.28;97378.13;110299;1246;67934;-65
2022/01/21 11:08:06;;;;;;;13.30;8.20;;;;;;;16.57;23.34;97377.75;110593;1244;69076;-67
2022/01/21 11:10:51;;;;;;;16.50;9.90;;;;;;;16.99;22.02;97374.27;110373;1246;59696;-68
2022/01/21 11:13:20;;;;;;;16.50;10.60;;;;;;;17.00;21.23;97375.23;110608;1244;59621;-68
2022/01/21 11:16:13;;;;;;;18.00;12.40;;;;;;;16.69;21.20;97373.05;110593;1244;71774;-68
2022/01/21 11:19:08;;;;;;;14.70;10.90;;;;;;;15.95;21.52;97378.61;110323;1245;68434;-68
2022/01/21 11:21:54;;;;;;;14.30;9.70;;;;;;;15.61;22.72;97379.30;110404;1244;69816;-70
2022/01/21 11:24:25;;;;;;;16.20;12.00;;;;;;;14.64;24.57;97381.67;110507;1245;59722;-69
2022/01/21 11:27:14;;;;;;;14.40;10.20;;;;;;;13.37;25.47;97387.11;110352;1247;59739;-75
2022/01/21 11:29:47;;;;;;;18.20;12.60;;;;;;;11.76;25.96;97383.39;110315;1247;70327;-72
2022/01/21 11:32:21;;;;;;;13.40;10.00;;;;;;;10.55;28.47;97384.13;110352;1247;68609;-68
2022/01/21 11:34:53;;;;;;;15.50;11.00;;;;;;;9.08;29.86;97384.82;110513;1245;69417;-68
2022/01/21 11:37:24;;;;;;;;;;;;;;;7.76;31.74;97387.93;110493;1244;59717;-69
2022/01/21 11:39:54;;;;;;;14.10;9.60;;;;;;;6.92;33.59;97386.59;110489;1244;59755;-67
2022/01/21 11:42:27;;;;;;;14.20;9.90;;;;;;;6.25;34.88;97385.90;110547;1245;72470;-70
2022/01/21 11:45:14;;;;;;;7.50;4.50;;;;;;;5.67;36.19;97383.52;110192;1248;67715;-70
2022/01/21 11:48:12;;;;;;;8.40;4.40;;;;;;;5.15;37.20;97381.23;110225;1247;69393;-68
2022/01/21 11:50:44;;;;;;;9.20;4.60;;;;;;;5.57;37.06;97380.92;110497;1244;59734;-67
2022/01/21 11:53:33;;;;;;;6.10;4.50;;;;;;;5.73;36.65;97384.24;110233;1247;59604;-69
2022/01/21 11:56:06;;;;;;;7.90;5.60;;;;;;;6.85;35.57;97375.38;110437;1245;72031;-65
2022/01/21 11:58:35;;;;;;;8.70;4.70;;;;;;;7.62;34.01;97374.42;110418;1245;69012;-66
2022/01/21 12:01:26;;;;;;;8.20;4.70;;;;;;;8.40;32.84;97374.90;110543;1242;69863;-66
2022/01/21 12:04:06;;;;;;;7.10;4.30;;;;;;;9.13;31.64;97377.23;110596;1245;59729;-69
2022/01/21 12:06:36;;;;;;;8.50;4.90;;;;;;;9.93;30.17;97370.64;110282;1247;59673;-66
2022/01/21 12:09:08;;;;;;;10.40;5.00;;;;;;;9.95;29.83;97363.94;110519;1244;71957;-69
2022/01/21 12:11:39;;;;;;;7.30;4.90;;;;;;;10.37;29.61;97359.48;110609;1245;68704;-67
2022/01/21 12:14:39;;;;;;;8.90;5.80;;;;;;;10.83;28.47;97363.83;110559;1244;69469;-66
2022/01/21 12:17:17;;;;;;;7.20;5.20;;;;;;;11.21;27.68;97360.43;110560;1244;59687;-66
2022/01/21 12:19:49;;;;;;;8.10;5.10;;;;;;;11.67;27.20;97363.66;110498;1245;59744;-67
2022/01/21 12:22:19;;;;;;;9.10;5.30;;;;;;;12.19;26.57;97359.60;110638;1244;71057;-67
2022/01/21 12:24:54;;;;;;;;;;;;;;;12.60;25.80;97356.99;110579;1245;68026;-68
2022/01/21 12:27:25;;;;;;;10.40;5.90;;;;;;;13.20;25.29;97363.02;110526;1245;69559;-70
2022/01/21 12:30:23;;;;;;;9.60;5.00;;;;;;;13.95;24.82;97365.20;110486;1245;59666;-69
2022/01/21 12:33:08;;;;;;;11.30;6.70;;;;;;;14.47;23.49;97359.71;110598;1244;59601;-70
2022/01/21 12:35:56;;;;;;;9.70;5.50;;;;;;;14.79;22.65;97352.16;110578;1244;71547;-69